createdAt,value
2016-12-02T00:00:35.138Z,53.72
2016-12-02T00:01:35.167Z,52.95
2016-12-02T00:02:35.193Z,53.72
2016-12-02T00:03:35.225Z,53.23
2016-12-02T00:04:35.254Z,53.23
2016-12-02T00:05:35.282Z,53.23
2016-12-02T00:06:35.304Z,53.23
2016-12-02T00:07:35.644Z,53.23
2016-12-02T00:08:35.355Z,53.05
2016-12-02T00:09:35.694Z,52.92
2016-12-02T00:10:35.720Z,52.92
2016-12-02T00:11:35.444Z,52.73
2016-12-02T00:12:35.473Z,52.73
2016-12-02T00:13:35.792Z,52.73
2016-12-02T00:14:35.525Z,52.92
2016-12-02T00:15:35.858Z,52.73
2016-12-02T00:16:35.580Z,53.02
2016-12-02T00:17:35.610Z,52.73
2016-12-02T00:18:35.942Z,52.83
2016-12-02T00:19:35.962Z,52.92
2016-12-02T00:20:35.698Z,52.63
2016-12-02T00:21:35.719Z,52.73
2016-12-02T00:22:36.049Z,53.02
2016-12-02T00:23:35.781Z,52.83
2016-12-02T00:24:36.114Z,52.83
2016-12-02T00:25:36.138Z,52.92
2016-12-02T00:26:35.856Z,52.92
2016-12-02T00:27:35.896Z,53.02
2016-12-02T00:28:36.207Z,52.83
2016-12-02T00:29:35.938Z,53.02
2016-12-02T00:30:35.967Z,52.83
2016-12-02T00:31:35.992Z,52.83
2016-12-02T00:32:36.323Z,53.02
2016-12-02T00:33:36.044Z,53.11
2016-12-02T00:34:36.377Z,53.11
2016-12-02T00:35:36.102Z,53.11
2016-12-02T00:36:36.131Z,53.11
2016-12-02T00:37:36.157Z,53.11
2016-12-02T00:38:36.187Z,53.11
2016-12-02T00:39:36.526Z,53.11
2016-12-02T00:40:36.247Z,52.73
2016-12-02T00:41:36.563Z,52.63
2016-12-02T00:42:36.592Z,53.02
2016-12-02T00:43:36.322Z,53.02
2016-12-02T00:44:36.653Z,52.63
2016-12-02T00:45:36.378Z,53.02
2016-12-02T00:46:36.407Z,53.02
2016-12-02T00:47:36.434Z,53.02
2016-12-02T00:48:36.456Z,53.02
2016-12-02T00:49:36.796Z,53.02
2016-12-02T00:50:36.509Z,53.11
2016-12-02T00:51:36.539Z,52.83
2016-12-02T00:52:36.568Z,52.83
2016-12-02T00:53:36.901Z,53.02
2016-12-02T00:54:36.621Z,52.92
2016-12-02T00:55:36.953Z,52.92
2016-12-02T00:56:36.981Z,52.83
2016-12-02T00:57:36.700Z,52.92
2016-12-02T00:58:37.036Z,52.92
2016-12-02T00:59:37.062Z,52.89
2016-12-02T01:00:36.789Z,53.11
2016-12-02T01:01:36.813Z,52.99
2016-12-02T01:02:36.839Z,52.99
2016-12-02T01:03:36.863Z,52.99
2016-12-02T01:04:36.893Z,52.92
2016-12-02T01:05:36.917Z,53.09
2016-12-02T01:06:37.253Z,52.89
2016-12-02T01:07:37.305Z,52.8
2016-12-02T01:08:37.298Z,52.63
2016-12-02T01:09:37.330Z,53.19
2016-12-02T01:10:37.358Z,53.11
2016-12-02T01:11:37.383Z,53.09
2016-12-02T01:12:37.109Z,52.7
2016-12-02T01:13:37.141Z,52.89
2016-12-02T01:14:37.166Z,52.99
2016-12-02T01:15:37.191Z,53.09
2016-12-02T01:16:37.528Z,53.19
2016-12-02T01:17:37.548Z,52.61
2016-12-02T01:18:37.275Z,52.99
2016-12-02T01:19:37.302Z,52.89
2016-12-02T01:20:37.324Z,53.09
2016-12-02T01:21:37.664Z,52.99
2016-12-02T01:22:37.692Z,52.89
2016-12-02T01:23:37.412Z,52.89
2016-12-02T01:24:37.434Z,52.61
2016-12-02T01:25:37.458Z,53.09
2016-12-02T01:26:37.783Z,52.7
2016-12-02T01:27:37.821Z,52.89
2016-12-02T01:28:37.548Z,52.7
2016-12-02T01:29:37.877Z,52.89
2016-12-02T01:30:37.902Z,52.89
2016-12-02T01:31:37.931Z,53.28
2016-12-02T01:32:37.960Z,53.09
2016-12-02T01:33:37.679Z,52.99
2016-12-02T01:34:37.709Z,52.8
2016-12-02T01:35:37.733Z,53.28
2016-12-02T01:36:38.079Z,52.89
2016-12-02T01:37:37.819Z,52.89
2016-12-02T01:38:38.116Z,52.89
2016-12-02T01:39:38.148Z,52.61
2016-12-02T01:40:37.873Z,53.28
2016-12-02T01:41:38.205Z,52.61
2016-12-02T01:42:37.923Z,53.28
2016-12-02T01:43:37.951Z,52.89
2016-12-02T01:44:38.279Z,52.7
2016-12-02T01:45:38.313Z,52.51
2016-12-02T01:46:38.342Z,53.09
2016-12-02T01:47:38.375Z,52.61
2016-12-02T01:48:38.387Z,53.19
2016-12-02T01:49:38.124Z,52.99
2016-12-02T01:50:38.140Z,52.61
2016-12-02T01:51:38.472Z,52.99
2016-12-02T01:52:38.502Z,53.19
2016-12-02T01:53:38.527Z,52.61
2016-12-02T01:54:38.251Z,52.68
2016-12-02T01:55:38.277Z,52.61
2016-12-02T01:56:38.300Z,52.8
2016-12-02T01:57:38.637Z,52.61
2016-12-02T01:58:38.666Z,52.61
2016-12-02T01:59:38.392Z,52.61
2016-12-02T02:00:38.715Z,52.68
2016-12-02T02:01:38.748Z,52.48
2016-12-02T02:02:38.766Z,52.61
2016-12-02T02:03:38.485Z,52.51
2016-12-02T02:04:38.517Z,52.61
2016-12-02T02:05:38.546Z,52.61
2016-12-02T02:06:38.576Z,52.48
2016-12-02T02:07:38.600Z,52.58
2016-12-02T02:08:38.932Z,52.7
2016-12-02T02:09:38.654Z,52.61
2016-12-02T02:10:38.976Z,52.48
2016-12-02T02:11:38.710Z,52.51
2016-12-02T02:12:38.732Z,52.68
2016-12-02T02:13:39.069Z,52.58
2016-12-02T02:14:38.781Z,52.58
2016-12-02T02:15:38.818Z,52.29
2016-12-02T02:16:39.141Z,52.58
2016-12-02T02:17:38.870Z,52.48
2016-12-02T02:18:39.203Z,52.48
2016-12-02T02:19:38.916Z,52.48
2016-12-02T02:20:38.944Z,52.48
2016-12-02T02:21:38.970Z,52.58
2016-12-02T02:22:39.003Z,52.68
2016-12-02T02:23:39.027Z,52.29
2016-12-02T02:24:39.048Z,52.29
2016-12-02T02:25:39.388Z,52.39
2016-12-02T02:26:39.413Z,52.48
2016-12-02T02:27:39.438Z,52.39
2016-12-02T02:28:39.475Z,52.29
2016-12-02T02:29:39.197Z,52.29
2016-12-02T02:30:39.214Z,52.48
2016-12-02T02:31:39.240Z,52.48
2016-12-02T02:32:39.269Z,52.39
2016-12-02T02:33:39.598Z,52.48
2016-12-02T02:34:39.325Z,52.48
2016-12-02T02:35:39.355Z,52.29
2016-12-02T02:36:39.380Z,52.48
2016-12-02T02:37:39.404Z,52.29
2016-12-02T02:38:39.434Z,52.58
2016-12-02T02:39:39.761Z,52.39
2016-12-02T02:40:39.790Z,52.29
2016-12-02T02:41:39.810Z,52.48
2016-12-02T02:42:39.544Z,52.39
2016-12-02T02:43:39.873Z,52.48
2016-12-02T02:44:39.597Z,52.48
2016-12-02T02:45:39.926Z,52.58
2016-12-02T02:46:39.647Z,52.87
2016-12-02T02:47:39.675Z,52.77
2016-12-02T02:48:39.701Z,52.48
2016-12-02T02:49:40.032Z,52.77
2016-12-02T02:50:40.054Z,52.68
2016-12-02T02:51:40.083Z,52.58
2016-12-02T02:52:39.810Z,52.2
2016-12-02T02:53:39.834Z,52.68
2016-12-02T02:54:39.859Z,52.77
2016-12-02T02:55:39.885Z,52.48
2016-12-02T02:56:39.915Z,52.68
2016-12-02T02:57:39.945Z,52.68
2016-12-02T02:58:39.972Z,52.68
2016-12-02T02:59:39.999Z,52.58
2016-12-02T03:00:40.024Z,52.58
2016-12-02T03:01:40.348Z,52.39
2016-12-02T03:02:40.072Z,52.68
2016-12-02T03:03:40.109Z,52.77
2016-12-02T03:04:40.128Z,51.81
2016-12-02T03:05:40.159Z,51.91
2016-12-02T03:06:40.177Z,52.1
2016-12-02T03:07:40.512Z,52.29
2016-12-02T03:08:40.232Z,52.1
2016-12-02T03:09:40.567Z,52.29
2016-12-02T03:10:40.590Z,52.29
2016-12-02T03:11:40.316Z,52.2
2016-12-02T03:12:40.647Z,52.29
2016-12-02T03:13:40.672Z,52.29
2016-12-02T03:14:40.700Z,52.2
2016-12-02T03:15:40.721Z,52.29
2016-12-02T03:16:40.750Z,52.2
2016-12-02T03:17:40.479Z,52.2
2016-12-02T03:18:40.507Z,51.81
2016-12-02T03:19:40.840Z,52.1
2016-12-02T03:20:40.554Z,52
2016-12-02T03:21:40.581Z,51.91
2016-12-02T03:22:40.611Z,52.1
2016-12-02T03:23:40.936Z,52.1
2016-12-02T03:24:40.973Z,52.1
2016-12-02T03:25:40.686Z,51.81
2016-12-02T03:26:41.017Z,51.91
2016-12-02T03:27:41.050Z,52
2016-12-02T03:28:41.076Z,52.2
2016-12-02T03:29:40.790Z,51.91
2016-12-02T03:30:40.827Z,51.98
2016-12-02T03:31:40.847Z,51.91
2016-12-02T03:32:40.873Z,52
2016-12-02T03:33:40.897Z,51.91
2016-12-02T03:34:41.268Z,52
2016-12-02T03:35:40.955Z,52.1
2016-12-02T03:36:41.286Z,52
2016-12-02T03:37:41.304Z,52
2016-12-02T03:38:41.351Z,52.2
2016-12-02T03:39:41.373Z,52.2
2016-12-02T03:40:41.397Z,52
2016-12-02T03:41:41.115Z,52
2016-12-02T03:42:41.144Z,52
2016-12-02T03:43:41.168Z,52.2
2016-12-02T03:44:41.206Z,52
2016-12-02T03:45:41.530Z,52.29
2016-12-02T03:46:41.255Z,51.98
2016-12-02T03:47:41.580Z,51.81
2016-12-02T03:48:41.304Z,52.2
2016-12-02T03:49:41.320Z,51.91
2016-12-02T03:50:41.369Z,52
2016-12-02T03:51:41.678Z,52.17
2016-12-02T03:52:41.710Z,52.08
2016-12-02T03:53:41.435Z,52.26
2016-12-02T03:54:41.767Z,52
2016-12-02T03:55:41.795Z,52.1
2016-12-02T03:56:41.517Z,52
2016-12-02T03:57:41.842Z,52.08
2016-12-02T03:58:41.567Z,52.2
2016-12-02T03:59:41.895Z,52.1
2016-12-02T04:00:41.633Z,52.1
2016-12-02T04:01:41.948Z,52.08
2016-12-02T04:02:41.673Z,52
2016-12-02T04:03:42.006Z,52.26
2016-12-02T04:04:41.739Z,52.1
2016-12-02T04:05:41.748Z,51.88
2016-12-02T04:06:42.092Z,52.2
2016-12-02T04:07:41.813Z,52.29
2016-12-02T04:08:42.128Z,51.59
2016-12-02T04:09:41.859Z,51.69
2016-12-02T04:10:41.886Z,51.59
2016-12-02T04:11:41.915Z,51.91
2016-12-02T04:12:42.248Z,51.33
2016-12-02T04:13:42.272Z,51.53
2016-12-02T04:14:42.321Z,51.69
2016-12-02T04:15:42.325Z,51.53
2016-12-02T04:16:42.350Z,51.5
2016-12-02T04:17:42.076Z,51.5
2016-12-02T04:18:42.400Z,51.53
2016-12-02T04:19:42.121Z,51.62
2016-12-02T04:20:42.461Z,51.62
2016-12-02T04:21:42.490Z,51.59
2016-12-02T04:22:42.215Z,51.59
2016-12-02T04:23:42.540Z,51.62
2016-12-02T04:24:42.564Z,51.33
2016-12-02T04:25:42.595Z,51.62
2016-12-02T04:26:42.317Z,51.62
2016-12-02T04:27:42.646Z,51.72
2016-12-02T04:28:42.674Z,51.31
2016-12-02T04:29:42.391Z,51.4
2016-12-02T04:30:42.423Z,51.62
2016-12-02T04:31:42.760Z,51.59
2016-12-02T04:32:42.477Z,51.4
2016-12-02T04:33:42.804Z,51.33
2016-12-02T04:34:42.827Z,51.31
2016-12-02T04:35:42.856Z,51.4
2016-12-02T04:36:42.884Z,51.59
2016-12-02T04:37:42.607Z,51.59
2016-12-02T04:38:42.946Z,51.4
2016-12-02T04:39:42.967Z,51.33
2016-12-02T04:40:42.687Z,51.4
2016-12-02T04:41:43.023Z,51.33
2016-12-02T04:42:43.053Z,51.5
2016-12-02T04:43:42.769Z,51.5
2016-12-02T04:44:42.789Z,51.5
2016-12-02T04:45:43.131Z,51.5
2016-12-02T04:46:43.149Z,51.5
2016-12-02T04:47:42.879Z,51.59
2016-12-02T04:48:43.200Z,51.31
2016-12-02T04:49:43.232Z,51.69
2016-12-02T04:50:42.962Z,51.31
2016-12-02T04:51:42.978Z,51.59
2016-12-02T04:52:43.007Z,51.79
2016-12-02T04:53:43.335Z,51.4
2016-12-02T04:54:43.368Z,51.5
2016-12-02T04:55:43.401Z,51.4
2016-12-02T04:56:43.112Z,51.88
2016-12-02T04:57:43.138Z,51.31
2016-12-02T04:58:43.167Z,51.88
2016-12-02T04:59:43.191Z,51.5
2016-12-02T05:00:43.532Z,51.4
2016-12-02T05:01:43.241Z,51.59
2016-12-02T05:02:43.274Z,51.5
2016-12-02T05:03:43.294Z,51.79
2016-12-02T05:04:43.327Z,51.5
2016-12-02T05:05:43.347Z,51.4
2016-12-02T05:06:43.684Z,51.79
2016-12-02T05:07:43.713Z,51.79
2016-12-02T05:08:43.742Z,51.88
2016-12-02T05:09:43.771Z,51.69
2016-12-02T05:10:43.791Z,51.79
2016-12-02T05:11:43.512Z,51.69
2016-12-02T05:12:43.539Z,51.88
2016-12-02T05:13:43.565Z,51.79
2016-12-02T05:14:43.590Z,51.21
2016-12-02T05:15:43.619Z,51.69
2016-12-02T05:16:43.643Z,51.4
2016-12-02T05:17:43.676Z,51.21
2016-12-02T05:18:44.001Z,51.4
2016-12-02T05:19:43.725Z,51.31
2016-12-02T05:20:43.750Z,51.21
2016-12-02T05:21:44.083Z,51.4
2016-12-02T05:22:43.808Z,51.88
2016-12-02T05:23:43.831Z,51.59
2016-12-02T05:24:44.156Z,51.59
2016-12-02T05:25:43.885Z,51.59
2016-12-02T05:26:44.218Z,51.4
2016-12-02T05:27:43.970Z,51.4
2016-12-02T05:28:44.263Z,51.59
2016-12-02T05:29:43.992Z,51.4
2016-12-02T05:30:44.326Z,51.59
2016-12-02T05:31:44.349Z,51.59
2016-12-02T05:32:44.074Z,51.31
2016-12-02T05:33:44.094Z,51.59
2016-12-02T05:34:44.435Z,51.59
2016-12-02T05:35:44.152Z,51.31
2016-12-02T05:36:44.482Z,51.31
2016-12-02T05:37:44.506Z,51.5
2016-12-02T05:38:44.229Z,51.5
2016-12-02T05:39:44.263Z,51.5
2016-12-02T05:40:44.283Z,51.5
2016-12-02T05:41:44.609Z,51.79
2016-12-02T05:42:44.338Z,51.53
2016-12-02T05:43:44.666Z,51.91
2016-12-02T05:44:44.387Z,51.62
2016-12-02T05:45:44.415Z,51.43
2016-12-02T05:46:44.453Z,51.23
2016-12-02T05:47:44.772Z,51.43
2016-12-02T05:48:44.792Z,50.95
2016-12-02T05:49:44.825Z,51.43
2016-12-02T05:50:44.850Z,50.85
2016-12-02T05:51:44.870Z,51.14
2016-12-02T05:52:44.599Z,50.95
2016-12-02T05:53:44.628Z,50.95
2016-12-02T05:54:44.656Z,51.14
2016-12-02T05:55:44.685Z,50.95
2016-12-02T05:56:45.018Z,51.04
2016-12-02T05:57:44.751Z,51.23
2016-12-02T05:58:45.064Z,51.33
2016-12-02T05:59:44.793Z,51.23
2016-12-02T06:00:45.117Z,51.23
2016-12-02T06:01:44.845Z,51.33
2016-12-02T06:02:44.866Z,50.85
2016-12-02T06:03:44.895Z,50.76
2016-12-02T06:04:45.226Z,51.14
2016-12-02T06:05:45.247Z,51.04
2016-12-02T06:06:44.977Z,50.56
2016-12-02T06:07:44.997Z,50.46
2016-12-02T06:08:45.346Z,50.56
2016-12-02T06:09:45.054Z,50.97
2016-12-02T06:10:45.377Z,50.85
2016-12-02T06:11:45.415Z,50.95
2016-12-02T06:12:45.438Z,50.76
2016-12-02T06:13:45.160Z,50.87
2016-12-02T06:14:45.205Z,50.78
2016-12-02T06:15:45.514Z,50.78
2016-12-02T06:16:45.242Z,50.27
2016-12-02T06:17:45.591Z,50.49
2016-12-02T06:18:45.598Z,50.59
2016-12-02T06:19:45.325Z,50.49
2016-12-02T06:20:45.344Z,50.3
2016-12-02T06:21:45.677Z,50.2
2016-12-02T06:22:45.398Z,50.2
2016-12-02T06:23:45.732Z,50.1
2016-12-02T06:24:45.455Z,50.01
2016-12-02T06:25:45.791Z,50.01
2016-12-02T06:26:45.815Z,50.2
2016-12-02T06:27:45.842Z,50.2
2016-12-02T06:28:45.559Z,50.01
2016-12-02T06:29:45.588Z,50.01
2016-12-02T06:30:45.917Z,50.2
2016-12-02T06:31:45.942Z,50.1
2016-12-02T06:32:45.675Z,50.2
2016-12-02T06:33:45.699Z,50.2
2016-12-02T06:34:46.030Z,50.4
2016-12-02T06:35:46.044Z,50.2
2016-12-02T06:36:46.082Z,50.4
2016-12-02T06:37:45.802Z,50.2
2016-12-02T06:38:45.839Z,50.2
2016-12-02T06:39:45.859Z,50.2
2016-12-02T06:40:45.883Z,50.4
2016-12-02T06:41:45.910Z,50.3
2016-12-02T06:42:46.233Z,50.2
2016-12-02T06:43:46.270Z,50.3
2016-12-02T06:44:45.993Z,50.4
2016-12-02T06:45:46.021Z,50.2
2016-12-02T06:46:46.042Z,50.1
2016-12-02T06:47:46.073Z,50.01
2016-12-02T06:48:46.103Z,50.01
2016-12-02T06:49:46.130Z,50.01
2016-12-02T06:50:46.451Z,50.01
2016-12-02T06:51:46.186Z,50.2
2016-12-02T06:52:46.516Z,50.01
2016-12-02T06:53:46.237Z,50.01
2016-12-02T06:54:46.571Z,50.01
2016-12-02T06:55:46.587Z,50.3
2016-12-02T06:56:46.624Z,50.1
2016-12-02T06:57:46.336Z,50.4
2016-12-02T06:58:46.373Z,50.2
2016-12-02T06:59:46.398Z,50.2
2016-12-02T07:00:46.722Z,50.78
2016-12-02T07:01:46.754Z,50.78
2016-12-02T07:02:46.475Z,50.81
2016-12-02T07:03:46.806Z,50.87
2016-12-02T07:04:46.850Z,50.32
2016-12-02T07:05:46.861Z,50.99
2016-12-02T07:06:46.575Z,50.71
2016-12-02T07:07:46.610Z,50.81
2016-12-02T07:08:46.634Z,50.81
2016-12-02T07:09:46.973Z,50.9
2016-12-02T07:10:47.006Z,50.71
2016-12-02T07:11:46.714Z,50.23
2016-12-02T07:12:47.034Z,50.32
2016-12-02T07:13:46.772Z,50.23
2016-12-02T07:14:47.104Z,50.23
2016-12-02T07:15:47.124Z,50.04
2016-12-02T07:16:46.858Z,50.23
2016-12-02T07:17:47.184Z,50.23
2016-12-02T07:18:47.211Z,50.81
2016-12-02T07:19:46.924Z,50.32
2016-12-02T07:20:46.958Z,50.13
2016-12-02T07:21:46.994Z,50.13
2016-12-02T07:22:47.015Z,50.13
2016-12-02T07:23:47.343Z,50.23
2016-12-02T07:24:47.378Z,50.23
2016-12-02T07:25:47.097Z,50.23
2016-12-02T07:26:47.431Z,50.23
2016-12-02T07:27:47.142Z,50.23
2016-12-02T07:28:47.179Z,50.13
2016-12-02T07:29:47.204Z,50.42
2016-12-02T07:30:47.539Z,50.23
2016-12-02T07:31:47.265Z,49.65
2016-12-02T07:32:47.283Z,50.13
2016-12-02T07:33:47.612Z,50.32
2016-12-02T07:34:47.339Z,50.04
2016-12-02T07:35:47.672Z,50.42
2016-12-02T07:36:47.404Z,49.17
2016-12-02T07:37:47.422Z,50.23
2016-12-02T07:38:47.751Z,49.94
2016-12-02T07:39:47.477Z,48.49
2016-12-02T07:40:47.501Z,47.82
2016-12-02T07:41:47.831Z,47.03
2016-12-02T07:42:47.561Z,45.29
2016-12-02T07:43:47.586Z,44.43
2016-12-02T07:44:47.616Z,43.76
2016-12-02T07:45:47.947Z,45.2
2016-12-02T07:46:47.980Z,45.39
2016-12-02T07:47:47.988Z,45.2
2016-12-02T07:48:47.743Z,45.66
2016-12-02T07:49:47.745Z,46.04
2016-12-02T07:50:47.775Z,45.85
2016-12-02T07:51:47.799Z,46.23
2016-12-02T07:52:47.823Z,46.55
2016-12-02T07:53:47.856Z,46.23
2016-12-02T07:54:48.184Z,47
2016-12-02T07:55:47.900Z,47.1
2016-12-02T07:56:47.935Z,47.13
2016-12-02T07:57:47.964Z,46.93
2016-12-02T07:58:47.990Z,47.22
2016-12-02T07:59:48.016Z,46.84
2016-12-02T08:00:48.057Z,47.13
2016-12-02T08:01:48.377Z,47.31
2016-12-02T08:02:48.099Z,47.41
2016-12-02T08:03:48.122Z,47.31
2016-12-02T08:04:48.488Z,48.28
2016-12-02T08:05:48.480Z,47.89
2016-12-02T08:06:48.507Z,47.89
2016-12-02T08:07:48.535Z,48.18
2016-12-02T08:08:48.262Z,48.08
2016-12-02T08:09:48.311Z,48.18
2016-12-02T08:10:48.613Z,48.38
2016-12-02T08:11:48.347Z,48.38
2016-12-02T08:12:48.672Z,48.38
2016-12-02T08:13:48.385Z,48.47
2016-12-02T08:14:48.721Z,48.38
2016-12-02T08:15:48.742Z,48.38
2016-12-02T08:16:48.463Z,48.95
2016-12-02T08:17:48.803Z,48.38
2016-12-02T08:18:48.824Z,48.47
2016-12-02T08:19:48.872Z,48.95
2016-12-02T08:20:48.579Z,48.85
2016-12-02T08:21:48.919Z,48.85
2016-12-02T08:22:48.932Z,48.95
2016-12-02T08:23:48.655Z,48.85
2016-12-02T08:24:48.995Z,48.93
2016-12-02T08:25:49.012Z,49.33
2016-12-02T08:26:49.037Z,49.15
2016-12-02T08:27:48.807Z,49.22
2016-12-02T08:28:48.790Z,48.93
2016-12-02T08:29:49.119Z,48.85
2016-12-02T08:30:49.163Z,48.76
2016-12-02T08:31:48.875Z,48.93
2016-12-02T08:32:48.901Z,48.95
2016-12-02T08:33:48.931Z,49.02
2016-12-02T08:34:49.264Z,49.33
2016-12-02T08:35:48.987Z,49.05
2016-12-02T08:36:49.007Z,49.05
2016-12-02T08:37:49.031Z,49.05
2016-12-02T08:38:49.061Z,48.66
2016-12-02T08:39:49.089Z,48.93
2016-12-02T08:40:49.414Z,49.22
2016-12-02T08:41:49.144Z,49.43
2016-12-02T08:42:49.176Z,49.51
2016-12-02T08:43:49.197Z,49.51
2016-12-02T08:44:49.223Z,49.51
2016-12-02T08:45:49.245Z,49.31
2016-12-02T08:46:49.278Z,49.51
2016-12-02T08:47:49.618Z,49.51
2016-12-02T08:48:49.331Z,49.51
2016-12-02T08:49:49.660Z,49.41
2016-12-02T08:50:49.688Z,49.41
2016-12-02T08:51:49.713Z,49.31
2016-12-02T08:52:49.434Z,49.12
2016-12-02T08:53:49.467Z,49.41
2016-12-02T08:54:49.499Z,49.31
2016-12-02T08:55:49.823Z,49.31
2016-12-02T08:56:49.557Z,49.41
2016-12-02T08:57:49.573Z,49.51
2016-12-02T08:58:49.605Z,49.31
2016-12-02T08:59:49.626Z,49.51
2016-12-02T09:00:49.659Z,49.31
2016-12-02T09:01:49.681Z,49.6
2016-12-02T09:02:49.704Z,50.08
2016-12-02T09:03:49.741Z,49.69
2016-12-02T09:04:49.764Z,49.79
2016-12-02T09:05:49.786Z,49.79
2016-12-02T09:06:49.839Z,49.99
2016-12-02T09:07:49.843Z,49.99
2016-12-02T09:08:49.877Z,49.99
2016-12-02T09:09:50.201Z,49.99
2016-12-02T09:10:49.932Z,49.69
2016-12-02T09:11:50.250Z,49.69
2016-12-02T09:12:49.974Z,49.89
2016-12-02T09:13:50.008Z,49.69
2016-12-02T09:14:50.336Z,49.31
2016-12-02T09:15:50.057Z,49.79
2016-12-02T09:16:50.390Z,49.69
2016-12-02T09:17:50.411Z,49.99
2016-12-02T09:18:50.439Z,49.69
2016-12-02T09:19:50.459Z,49.79
2016-12-02T09:20:50.496Z,49.79
2016-12-02T09:21:50.518Z,49.79
2016-12-02T09:22:50.237Z,49.79
2016-12-02T09:23:50.574Z,49.79
2016-12-02T09:24:50.323Z,49.79
2016-12-02T09:25:50.629Z,49.89
2016-12-02T09:26:50.648Z,49.79
2016-12-02T09:27:50.381Z,49.41
2016-12-02T09:28:50.406Z,49.99
2016-12-02T09:29:50.438Z,49.79
2016-12-02T09:30:50.767Z,49.69
2016-12-02T09:31:50.484Z,49.79
2016-12-02T09:32:50.512Z,49.6
2016-12-02T09:33:50.533Z,49.89
2016-12-02T09:34:50.863Z,49.51
2016-12-02T09:35:50.899Z,49.69
2016-12-02T09:36:50.921Z,49.89
2016-12-02T09:37:50.643Z,49.69
2016-12-02T09:38:50.977Z,49.79
2016-12-02T09:39:51.005Z,49.51
2016-12-02T09:40:51.030Z,49.79
2016-12-02T09:41:51.065Z,49.69
2016-12-02T09:42:50.778Z,49.79
2016-12-02T09:43:51.118Z,49.51
2016-12-02T09:44:50.834Z,49.89
2016-12-02T09:45:51.159Z,49.6
2016-12-02T09:46:50.883Z,49.79
2016-12-02T09:47:50.920Z,49.41
2016-12-02T09:48:50.945Z,49.89
2016-12-02T09:49:51.279Z,49.79
2016-12-02T09:50:51.002Z,49.79
2016-12-02T09:51:51.026Z,49.51
2016-12-02T09:52:51.044Z,49.79
2016-12-02T09:53:51.380Z,49.41
2016-12-02T09:54:51.400Z,49.89
2016-12-02T09:55:51.134Z,49.69
2016-12-02T09:56:51.163Z,49.89
2016-12-02T09:57:51.492Z,49.89
2016-12-02T09:58:51.207Z,49.79
2016-12-02T09:59:51.233Z,49.79
2016-12-02T10:00:51.577Z,49.51
2016-12-02T10:01:51.599Z,49.89
2016-12-02T10:02:51.619Z,49.99
2016-12-02T10:03:51.648Z,49.89
2016-12-02T10:04:51.372Z,49.79
2016-12-02T10:05:51.705Z,49.51
2016-12-02T10:06:51.426Z,49.99
2016-12-02T10:07:51.750Z,49.99
2016-12-02T10:08:51.484Z,49.99
2016-12-02T10:09:51.808Z,49.79
2016-12-02T10:10:51.837Z,49.69
2016-12-02T10:11:51.561Z,49.79
2016-12-02T10:12:51.883Z,49.89
2016-12-02T10:13:51.923Z,49.89
2016-12-02T10:14:51.951Z,49.41
2016-12-02T10:15:51.985Z,49.79
2016-12-02T10:16:51.694Z,49.69
2016-12-02T10:17:52.030Z,49.22
2016-12-02T10:18:51.743Z,49.69
2016-12-02T10:19:51.777Z,49.6
2016-12-02T10:20:52.105Z,49.89
2016-12-02T10:21:51.828Z,49.51
2016-12-02T10:22:51.853Z,49.51
2016-12-02T10:23:52.191Z,49.69
2016-12-02T10:24:52.211Z,49.69
2016-12-02T10:25:52.243Z,49.79
2016-12-02T10:26:51.964Z,49.99
2016-12-02T10:27:51.993Z,49.89
2016-12-02T10:28:52.313Z,49.69
2016-12-02T10:29:52.040Z,49.51
2016-12-02T10:30:52.071Z,49.89
2016-12-02T10:31:52.099Z,49.79
2016-12-02T10:32:52.433Z,49.79
2016-12-02T10:33:52.453Z,49.89
2016-12-02T10:34:52.486Z,49.51
2016-12-02T10:35:52.196Z,50.08
2016-12-02T10:36:52.236Z,50.37
2016-12-02T10:37:52.261Z,49.51
2016-12-02T10:38:52.288Z,49.79
2016-12-02T10:39:52.320Z,49.79
2016-12-02T10:40:52.342Z,49.6
2016-12-02T10:41:52.703Z,49.69
2016-12-02T10:42:52.396Z,49.51
2016-12-02T10:43:52.417Z,49.99
2016-12-02T10:44:52.447Z,50.08
2016-12-02T10:45:52.473Z,50.08
2016-12-02T10:46:52.496Z,49.89
2016-12-02T10:47:52.836Z,49.89
2016-12-02T10:48:52.552Z,49.89
2016-12-02T10:49:52.585Z,49.79
2016-12-02T10:50:52.906Z,49.79
2016-12-02T10:51:52.639Z,49.69
2016-12-02T10:52:52.669Z,49.69
2016-12-02T10:53:52.683Z,49.69
2016-12-02T10:54:53.012Z,49.79
2016-12-02T10:55:52.741Z,49.89
2016-12-02T10:56:52.770Z,49.89
2016-12-02T10:57:53.095Z,49.6
2016-12-02T10:58:52.819Z,49.41
2016-12-02T10:59:52.844Z,49.6
2016-12-02T11:00:53.184Z,49.79
2016-12-02T11:01:52.901Z,49.41
2016-12-02T11:02:53.226Z,49.22
2016-12-02T11:03:53.255Z,49.69
2016-12-02T11:04:53.291Z,50.08
2016-12-02T11:05:53.012Z,49.69
2016-12-02T11:06:53.033Z,50.27
2016-12-02T11:07:53.366Z,50.08
2016-12-02T11:08:53.090Z,49.99
2016-12-02T11:09:53.119Z,50.46
2016-12-02T11:10:53.451Z,49.69
2016-12-02T11:11:53.176Z,49.69
2016-12-02T11:12:53.196Z,50.27
2016-12-02T11:13:53.226Z,50.27
2016-12-02T11:14:53.551Z,50.27
2016-12-02T11:15:53.287Z,49.69
2016-12-02T11:16:53.304Z,49.99
2016-12-02T11:17:53.345Z,49.99
2016-12-02T11:18:53.661Z,49.89
2016-12-02T11:19:53.687Z,50.37
2016-12-02T11:20:53.407Z,49.6
2016-12-02T11:21:53.748Z,49.6
2016-12-02T11:22:53.520Z,49.31
2016-12-02T11:23:53.493Z,49.89
2016-12-02T11:24:53.522Z,49.79
2016-12-02T11:25:53.547Z,49.89
2016-12-02T11:26:53.574Z,49.99
2016-12-02T11:27:53.596Z,49.99
2016-12-02T11:28:53.629Z,49.79
2016-12-02T11:29:53.654Z,49.79
2016-12-02T11:30:53.683Z,49.89
2016-12-02T11:31:53.709Z,49.69
2016-12-02T11:32:54.040Z,49.89
2016-12-02T11:33:54.061Z,49.51
2016-12-02T11:34:54.088Z,49.51
2016-12-02T11:35:54.122Z,49.79
2016-12-02T11:36:54.145Z,49.41
2016-12-02T11:37:54.167Z,49.51
2016-12-02T11:38:53.894Z,49.31
2016-12-02T11:39:54.228Z,49.51
2016-12-02T11:40:53.947Z,49.22
2016-12-02T11:41:54.278Z,49.41
2016-12-02T11:42:54.303Z,49.22
2016-12-02T11:43:54.028Z,49.12
2016-12-02T11:44:54.361Z,49.6
2016-12-02T11:45:54.393Z,49.31
2016-12-02T11:46:54.418Z,48.93
2016-12-02T11:47:54.441Z,49.02
2016-12-02T11:48:54.472Z,49.41
2016-12-02T11:49:54.496Z,49.41
2016-12-02T11:50:54.528Z,49.22
2016-12-02T11:51:54.245Z,49.02
2016-12-02T11:52:54.583Z,48.93
2016-12-02T11:53:54.599Z,48.83
2016-12-02T11:54:54.628Z,49.22
2016-12-02T11:55:54.663Z,48.83
2016-12-02T11:56:54.681Z,49.02
2016-12-02T11:57:54.399Z,48.83
2016-12-02T11:58:54.738Z,49.02
2016-12-02T11:59:54.766Z,48.74
2016-12-02T12:00:54.787Z,49.12
2016-12-02T12:01:54.820Z,49.31
2016-12-02T12:02:54.854Z,49.02
2016-12-02T12:03:54.874Z,48.74
2016-12-02T12:04:54.599Z,48.83
2016-12-02T12:05:54.621Z,49.12
2016-12-02T12:06:54.648Z,49.02
2016-12-02T12:07:54.981Z,49.05
2016-12-02T12:08:54.710Z,48.93
2016-12-02T12:09:55.038Z,48.74
2016-12-02T12:10:55.067Z,49.22
2016-12-02T12:11:54.792Z,48.74
2016-12-02T12:12:54.812Z,49.22
2016-12-02T12:13:54.833Z,49.33
2016-12-02T12:14:54.861Z,48.64
2016-12-02T12:15:54.896Z,48.76
2016-12-02T12:16:55.231Z,48.74
2016-12-02T12:17:55.248Z,49.24
2016-12-02T12:18:54.972Z,48.47
2016-12-02T12:19:55.301Z,49.05
2016-12-02T12:20:55.342Z,48.57
2016-12-02T12:21:55.367Z,49.05
2016-12-02T12:22:55.083Z,49.05
2016-12-02T12:23:55.112Z,48.57
2016-12-02T12:24:55.143Z,48.85
2016-12-02T12:25:55.464Z,48.66
2016-12-02T12:26:55.496Z,48.57
2016-12-02T12:27:55.523Z,48.57
2016-12-02T12:28:55.551Z,48.66
2016-12-02T12:29:55.576Z,48.57
2016-12-02T12:30:55.609Z,48.66
2016-12-02T12:31:55.626Z,48.47
2016-12-02T12:32:55.655Z,48.57
2016-12-02T12:33:55.379Z,48.57
2016-12-02T12:34:55.416Z,48.66
2016-12-02T12:35:55.436Z,48.66
2016-12-02T12:36:55.757Z,48.85
2016-12-02T12:37:55.790Z,48.76
2016-12-02T12:38:55.820Z,48.85
2016-12-02T12:39:55.544Z,48.76
2016-12-02T12:40:55.872Z,48.57
2016-12-02T12:41:55.899Z,49.15
2016-12-02T12:42:55.929Z,48.76
2016-12-02T12:43:55.946Z,48.66
2016-12-02T12:44:55.987Z,48.66
2016-12-02T12:45:56.012Z,48.85
2016-12-02T12:46:56.036Z,48.66
2016-12-02T12:47:56.085Z,49.05
2016-12-02T12:48:56.098Z,49.05
2016-12-02T12:49:56.122Z,48.66
2016-12-02T12:50:55.847Z,48.57
2016-12-02T12:51:55.864Z,48.85
2016-12-02T12:52:56.205Z,48.66
2016-12-02T12:53:55.921Z,48.47
2016-12-02T12:54:56.262Z,48.85
2016-12-02T12:55:55.979Z,48.57
2016-12-02T12:56:56.324Z,48.66
2016-12-02T12:57:56.344Z,48.76